首页
METAR-TAF:

METAR-TAF

机场 :

奧斯拉瓦河畔納梅什季, 捷克共和国

纬度: 49-09-57N, 经度: 16-07-30E, 海拔: 472米

当前天气观测

该预报发布于1小时和1分钟前的04:00 UTC
静风
温度 -3°C
湿度 93%
气压 1020 hPa
能見度: 2500
阴天层高于400英尺
轻雾

METAR: LKNA 250400Z 00000KT 2500 BR OVC004 M03/M04 Q1020 NOSIG RMK YLO YLO

时间: 06:01 (05:01 UTC)

预报

该预报发布于6小时和1分钟前的23:00 UTC
预报有效从25日的 00点(UTC)到 26日的 00点(UTC)
风速2节,风向多变
能見度: 3000
阴天层高于400英尺
轻雾
成为
从 25日的 00点(UTC)到 25日的 02点(UTC)
能見度: 0600
层高于100英尺
冻雾
成为
从 25日的 11点(UTC)到 25日的 13点(UTC)
能見度: 2000
阴天层高于300英尺
轻雾
几率 40%
从 25日的 13点(UTC)到 25日的 16点(UTC)
能見度: 6000
多云层高于800英尺
成为
从 25日的 20点(UTC)到 25日的 22点(UTC)
能見度: 0600
层高于100英尺
冻雾

TAF: LKNA 242300Z 2500/2600 VRB02KT 3000 BR OVC004 BECMG 2500/2502 0600 FZFG VV001 BECMG 2511/2513 2000 BR OVC003 PROB40 2513/2516 6000 BKN008 BECMG 2520/2522 0600 FZFG VV001

超过4000个机场的气象观测和天气预报(METAR&TAF报告)。

可查询的气象台以黄色和红色小点在地图上表示。

将鼠标移到小点上方,可查看气象台名称。

然后点击查看天气观测和预报。

如需切换地图:点击带黑十字的绿色按钮放大地图;点击带横线的绿色按钮缩小地图;或者点击绿色箭头查看邻近地区的地图。


METAR-TAF: